PWSweather.com
Personal Weather Stations
Station Observations
WATERF01
WaterfordIE

WaterfordIE

Lat: 52.2412507, Lon: -7.1414691

Elevation: 65

Station Type: Davis Vantage Vue

www.waterfordweather.com

High Low Average
Temperature 52.9°F11.6°C 39.7°F4.3°C 44.7°F7.1°C
Dew Point 49.5°F9.7°C 37.8°F3.2°C 43.2°F6.2°C
Winds 13.8 mph 22.2 kmh Calm Calm 3.0 mph SSW4.8 kmh SSW
Wind Gusts 23.0 mph37.0 kmh -- 5.0 mph8.0 kmh
Humidity 99% 82% 95%
Pressure 29.86 in1011.2 mb 29.43 in996.6 mb -
Precipitation 0.15 in3.8 mm - -
Hour Temp Dew Point Humidity Winds Wind Gusts Pressure Precip Precip Rate Daily Precip Total
12:00 AM 39.7°F4.3°C 37.8°F3.2°C 93% Calm Calm -- 29.67 in1004.7 mb - 0.00 in0.0 mm 0.00 in0.0 mm
12:10 AM 39.7°F4.3°C 38.1°F3.4°C 94% Calm Calm -- 29.66 in1004.4 mb - 0.00 in0.0 mm 0.00 in0.0 mm
12:20 AM 40.0°F4.4°C 38.7°F3.7°C 95% Calm Calm -- 29.65 in1004.1 mb - 0.00 in0.0 mm 0.00 in0.0 mm
12:30 AM 40.0°F4.4°C 39.0°F3.9°C 96% Calm Calm -- 29.64 in1003.7 mb - 0.00 in0.0 mm 0.00 in0.0 mm
12:40 AM 40.1°F4.5°C 39.3°F4.1°C 97% Calm Calm -- 29.64 in1003.7 mb - 0.00 in0.0 mm 0.00 in0.0 mm
12:50 AM 40.4°F4.7°C 39.6°F4.2°C 97% Calm Calm -- 29.62 in1003.0 mb - 0.00 in0.0 mm 0.00 in0.0 mm
01:00 AM 40.7°F4.8°C 40.2°F4.6°C 98% Calm Calm -- 29.62 in1003.0 mb - 0.00 in0.0 mm 0.00 in0.0 mm
01:10 AM 40.7°F4.8°C 40.2°F4.6°C 98% Calm Calm -- 29.61 in1002.7 mb - 0.00 in0.0 mm 0.00 in0.0 mm
01:20 AM 40.4°F4.7°C 40.1°F4.5°C 99% Calm Calm -- 29.60 in1002.4 mb - 0.01 in0.3 mm 0.01 in0.3 mm
01:30 AM 40.2°F4.6°C 39.9°F4.4°C 99% Calm Calm -- 29.59 in1002.0 mb - 0.00 in0.0 mm 0.01 in0.3 mm
01:40 AM 40.1°F4.5°C 39.8°F4.3°C 99% Calm Calm -- 29.58 in1001.7 mb - 0.01 in0.3 mm 0.02 in0.5 mm
01:50 AM 40.1°F4.5°C 39.8°F4.3°C 99% Calm Calm -- 29.58 in1001.7 mb - 0.00 in0.0 mm 0.02 in0.5 mm
02:00 AM 40.1°F4.5°C 39.8°F4.3°C 99% Calm Calm -- 29.57 in1001.4 mb - 0.00 in0.0 mm 0.02 in0.5 mm
02:10 AM 40.3°F4.6°C 40.0°F4.4°C 99% 1.2 mph E1.9 kmh E 2.3 mph3.7 kmh 29.57 in1001.4 mb - 0.01 in0.3 mm 0.03 in0.8 mm
02:20 AM 40.4°F4.7°C 40.1°F4.5°C 99% 2.3 mph E3.7 kmh E 2.3 mph3.7 kmh 29.56 in1001.0 mb - 0.00 in0.0 mm 0.03 in0.8 mm
02:30 AM 40.6°F4.8°C 40.3°F4.6°C 99% Calm Calm -- 29.56 in1001.0 mb - 0.01 in0.3 mm 0.04 in1.0 mm
02:40 AM 40.7°F4.8°C 40.4°F4.7°C 99% Calm Calm -- 29.56 in1001.0 mb - 0.00 in0.0 mm 0.04 in1.0 mm
02:50 AM 40.8°F4.9°C 40.5°F4.7°C 99% Calm Calm -- 29.55 in1000.7 mb - 0.00 in0.0 mm 0.04 in1.0 mm
03:00 AM 40.9°F4.9°C 40.6°F4.8°C 99% Calm Calm -- 29.55 in1000.7 mb - 0.01 in0.3 mm 0.05 in1.3 mm
03:10 AM 40.9°F4.9°C 40.6°F4.8°C 99% 3.5 mph E5.6 kmh E 5.8 mph9.3 kmh 29.54 in1000.3 mb - 0.01 in0.3 mm 0.06 in1.5 mm
03:20 AM 40.9°F4.9°C 40.6°F4.8°C 99% Calm Calm -- 29.53 in1000.0 mb - 0.00 in0.0 mm 0.06 in1.5 mm
03:30 AM 41.1°F5.1°C 40.8°F4.9°C 99% 2.3 mph E3.7 kmh E 5.8 mph9.3 kmh 29.53 in1000.0 mb - 0.00 in0.0 mm 0.06 in1.5 mm
03:40 AM 41.4°F5.2°C 41.1°F5.1°C 99% 2.3 mph ESE3.7 kmh ESE 5.8 mph9.3 kmh 29.52 in999.7 mb - 0.01 in0.3 mm 0.07 in1.8 mm
03:50 AM 41.7°F5.4°C 41.4°F5.2°C 99% Calm Calm -- 29.52 in999.7 mb - 0.00 in0.0 mm 0.07 in1.8 mm
04:00 AM 41.7°F5.4°C 41.4°F5.2°C 99% Calm Calm -- 29.52 in999.7 mb - 0.00 in0.0 mm 0.07 in1.8 mm
04:10 AM 41.6°F5.3°C 41.3°F5.2°C 99% Calm Calm -- 29.51 in999.3 mb - 0.00 in0.0 mm 0.07 in1.8 mm
04:20 AM 41.6°F5.3°C 41.3°F5.2°C 99% Calm Calm -- 29.51 in999.3 mb - 0.00 in0.0 mm 0.07 in1.8 mm
04:30 AM 41.6°F5.3°C 41.3°F5.2°C 99% Calm Calm -- 29.51 in999.3 mb - 0.00 in0.0 mm 0.07 in1.8 mm
04:40 AM 41.6°F5.3°C 41.3°F5.2°C 99% Calm Calm -- 29.51 in999.3 mb - 0.01 in0.3 mm 0.08 in2.0 mm
04:50 AM 41.7°F5.4°C 41.4°F5.2°C 99% Calm Calm -- 29.51 in999.3 mb - 0.00 in0.0 mm 0.08 in2.0 mm
05:00 AM 41.8°F5.4°C 41.5°F5.3°C 99% Calm Calm -- 29.50 in999.0 mb - 0.00 in0.0 mm 0.08 in2.0 mm
05:10 AM 41.9°F5.5°C 41.6°F5.3°C 99% Calm Calm -- 29.50 in999.0 mb - 0.00 in0.0 mm 0.08 in2.0 mm
05:20 AM 41.8°F5.4°C 41.5°F5.3°C 99% Calm Calm -- 29.50 in999.0 mb - 0.00 in0.0 mm 0.08 in2.0 mm
05:30 AM 41.8°F5.4°C 41.5°F5.3°C 99% Calm Calm -- 29.49 in998.6 mb - 0.00 in0.0 mm 0.08 in2.0 mm
05:40 AM 41.8°F5.4°C 41.5°F5.3°C 99% Calm Calm -- 29.49 in998.6 mb - 0.00 in0.0 mm 0.08 in2.0 mm
05:50 AM 41.9°F5.5°C 41.6°F5.3°C 99% Calm Calm -- 29.50 in999.0 mb - 0.00 in0.0 mm 0.08 in2.0 mm
06:00 AM 42.0°F5.6°C 41.7°F5.4°C 99% Calm Calm -- 29.49 in998.6 mb - 0.00 in0.0 mm 0.08 in2.0 mm
06:10 AM 42.0°F5.6°C 41.7°F5.4°C 99% Calm Calm -- 29.49 in998.6 mb - 0.00 in0.0 mm 0.08 in2.0 mm
06:20 AM 42.0°F5.6°C 41.7°F5.4°C 99% Calm Calm -- 29.49 in998.6 mb - 0.00 in0.0 mm 0.08 in2.0 mm
06:30 AM 42.1°F5.6°C 41.8°F5.4°C 99% Calm Calm -- 29.49 in998.6 mb - 0.00 in0.0 mm 0.08 in2.0 mm
06:40 AM 42.1°F5.6°C 41.8°F5.4°C 99% Calm Calm -- 29.49 in998.6 mb - 0.00 in0.0 mm 0.08 in2.0 mm
06:50 AM 42.3°F5.7°C 42.0°F5.6°C 99% Calm Calm -- 29.48 in998.3 mb - 0.00 in0.0 mm 0.08 in2.0 mm
07:00 AM 42.6°F5.9°C 42.3°F5.7°C 99% Calm Calm -- 29.48 in998.3 mb - 0.00 in0.0 mm 0.08 in2.0 mm
07:10 AM 42.7°F5.9°C 42.4°F5.8°C 99% Calm Calm -- 29.48 in998.3 mb - 0.01 in0.3 mm 0.09 in2.3 mm
07:20 AM 42.7°F5.9°C 42.4°F5.8°C 99% Calm Calm -- 29.48 in998.3 mb - 0.00 in0.0 mm 0.09 in2.3 mm
07:30 AM 42.9°F6.1°C 42.6°F5.9°C 99% Calm Calm -- 29.48 in998.3 mb - 0.00 in0.0 mm 0.09 in2.3 mm
07:40 AM 42.9°F6.1°C 42.6°F5.9°C 99% Calm Calm -- 29.47 in998.0 mb - 0.00 in0.0 mm 0.09 in2.3 mm
07:50 AM 43.1°F6.2°C 42.8°F6.0°C 99% Calm Calm -- 29.47 in998.0 mb - 0.00 in0.0 mm 0.09 in2.3 mm
08:00 AM 43.4°F6.3°C 43.1°F6.2°C 99% 1.2 mph SSW1.9 kmh SSW 2.3 mph3.7 kmh 29.47 in998.0 mb - 0.00 in0.0 mm 0.09 in2.3 mm
08:10 AM 43.6°F6.4°C 43.4°F6.3°C 99% 2.3 mph SSE3.7 kmh SSE 4.6 mph7.4 kmh 29.47 in998.0 mb - 0.00 in0.0 mm 0.09 in2.3 mm
08:20 AM 43.8°F6.6°C 43.5°F6.4°C 99% Calm Calm -- 29.47 in998.0 mb - 0.01 in0.3 mm 0.10 in2.5 mm
08:30 AM 43.9°F6.6°C 43.6°F6.4°C 99% Calm Calm 1.2 mph1.9 kmh 29.46 in997.6 mb - 0.00 in0.0 mm 0.10 in2.5 mm
08:40 AM 43.9°F6.6°C 43.6°F6.4°C 99% Calm Calm -- 29.46 in997.6 mb - 0.00 in0.0 mm 0.10 in2.5 mm
08:50 AM 44.1°F6.7°C 43.8°F6.6°C 99% Calm Calm -- 29.46 in997.6 mb - 0.00 in0.0 mm 0.10 in2.5 mm
09:00 AM 44.3°F6.8°C 44.0°F6.7°C 99% 2.3 mph WNW3.7 kmh WNW 5.8 mph9.3 kmh 29.46 in997.6 mb - 0.00 in0.0 mm 0.10 in2.5 mm
09:10 AM 44.4°F6.9°C 44.1°F6.7°C 99% 2.3 mph NW3.7 kmh NW 5.8 mph9.3 kmh 29.46 in997.6 mb - 0.01 in0.3 mm 0.11 in2.8 mm
09:20 AM 44.7°F7.1°C 44.4°F6.9°C 99% 2.3 mph W3.7 kmh W 5.8 mph9.3 kmh 29.45 in997.3 mb - 0.00 in0.0 mm 0.11 in2.8 mm
09:30 AM 44.9°F7.2°C 44.6°F7.0°C 99% 1.2 mph SW1.9 kmh SW 5.8 mph9.3 kmh 29.45 in997.3 mb - 0.00 in0.0 mm 0.11 in2.8 mm
09:40 AM 45.1°F7.3°C 44.8°F7.1°C 99% 2.3 mph W3.7 kmh W 5.8 mph9.3 kmh 29.45 in997.3 mb - 0.01 in0.3 mm 0.12 in3.0 mm
09:50 AM 45.1°F7.3°C 44.8°F7.1°C 99% 3.5 mph WNW5.6 kmh WNW 8.1 mph13.0 kmh 29.44 in997.0 mb - 0.00 in0.0 mm 0.12 in3.0 mm
10:00 AM 45.2°F7.3°C 44.9°F7.2°C 99% 5.8 mph WNW9.3 kmh WNW 8.1 mph13.0 kmh 29.44 in997.0 mb - 0.01 in0.3 mm 0.13 in3.3 mm
10:10 AM 45.1°F7.3°C 44.8°F7.1°C 99% 4.6 mph WSW7.4 kmh WSW 6.9 mph11.1 kmh 29.44 in997.0 mb - 0.00 in0.0 mm 0.13 in3.3 mm
10:20 AM 45.2°F7.3°C 45.0°F7.2°C 99% 2.3 mph WSW3.7 kmh WSW 6.9 mph11.1 kmh 29.44 in997.0 mb - 0.00 in0.0 mm 0.13 in3.3 mm
10:30 AM 45.6°F7.6°C 45.4°F7.4°C 99% 5.8 mph WSW9.3 kmh WSW 9.2 mph14.8 kmh 29.44 in997.0 mb - 0.00 in0.0 mm 0.13 in3.3 mm
10:40 AM 46.4°F8.0°C 46.1°F7.8°C 99% 6.9 mph W11.1 kmh W 11.5 mph18.5 kmh 29.43 in996.6 mb - 0.00 in0.0 mm 0.13 in3.3 mm
10:50 AM 47.2°F8.4°C 46.9°F8.3°C 99% 4.6 mph WNW7.4 kmh WNW 9.2 mph14.8 kmh 29.44 in997.0 mb - 0.00 in0.0 mm 0.13 in3.3 mm
11:00 AM 47.3°F8.5°C 47.0°F8.3°C 99% 5.8 mph W9.3 kmh W 9.2 mph14.8 kmh 29.44 in997.0 mb - 0.00 in0.0 mm 0.13 in3.3 mm
11:10 AM 48.4°F9.1°C 47.6°F8.7°C 97% 8.1 mph WNW13.0 kmh WNW 18.4 mph29.6 kmh 29.44 in997.0 mb - 0.00 in0.0 mm 0.13 in3.3 mm
11:20 AM 50.3°F10.2°C 48.1°F8.9°C 92% 5.8 mph WNW9.3 kmh WNW 8.1 mph13.0 kmh 29.45 in997.3 mb - 0.00 in0.0 mm 0.13 in3.3 mm
11:30 AM 50.5°F10.3°C 47.4°F8.6°C 89% 10.4 mph WNW16.7 kmh WNW 23.0 mph37.0 kmh 29.45 in997.3 mb - 0.00 in0.0 mm 0.13 in3.3 mm
11:40 AM 51.4°F10.8°C 48.5°F9.2°C 90% 5.8 mph NW9.3 kmh NW 20.7 mph33.3 kmh 29.46 in997.6 mb - 0.00 in0.0 mm 0.13 in3.3 mm
11:50 AM 52.1°F11.2°C 48.7°F9.3°C 88% 10.4 mph WNW16.7 kmh WNW 19.6 mph31.5 kmh 29.46 in997.6 mb - 0.00 in0.0 mm 0.13 in3.3 mm
12:00 PM 52.6°F11.4°C 48.8°F9.3°C 87% 5.8 mph NW9.3 kmh NW 12.7 mph20.4 kmh 29.46 in997.6 mb - 0.00 in0.0 mm 0.13 in3.3 mm
12:10 PM 52.7°F11.5°C 48.6°F9.2°C 86% 4.6 mph WNW7.4 kmh WNW 8.1 mph13.0 kmh 29.46 in997.6 mb - 0.00 in0.0 mm 0.13 in3.3 mm
12:20 PM 52.9°F11.6°C 49.5°F9.7°C 88% 8.1 mph WNW13.0 kmh WNW 16.1 mph25.9 kmh 29.46 in997.6 mb - 0.00 in0.0 mm 0.13 in3.3 mm
12:30 PM 52.9°F11.6°C 49.1°F9.5°C 87% 11.5 mph W18.5 kmh W 18.4 mph29.6 kmh 29.47 in998.0 mb - 0.00 in0.0 mm 0.13 in3.3 mm
12:40 PM 52.5°F11.4°C 48.8°F9.3°C 87% 9.2 mph NW14.8 kmh NW 16.1 mph25.9 kmh 29.48 in998.3 mb - 0.00 in0.0 mm 0.13 in3.3 mm
12:50 PM 52.3°F11.3°C 48.5°F9.2°C 87% 11.5 mph NW18.5 kmh NW 21.9 mph35.2 kmh 29.48 in998.3 mb - 0.00 in0.0 mm 0.13 in3.3 mm
01:00 PM 51.8°F11.0°C 48.1°F8.9°C 87% 11.5 mph WNW18.5 kmh WNW 19.6 mph31.5 kmh 29.49 in998.6 mb - 0.00 in0.0 mm 0.13 in3.3 mm
01:10 PM 51.5°F10.8°C 47.5°F8.6°C 86% 9.2 mph WNW14.8 kmh WNW 16.1 mph25.9 kmh 29.50 in999.0 mb - 0.00 in0.0 mm 0.13 in3.3 mm
01:20 PM 51.4°F10.8°C 46.4°F8.0°C 83% 11.5 mph NW18.5 kmh NW 18.4 mph29.6 kmh 29.50 in999.0 mb - 0.00 in0.0 mm 0.13 in3.3 mm
01:30 PM 51.3°F10.7°C 46.6°F8.1°C 84% 8.1 mph NW13.0 kmh NW 12.7 mph20.4 kmh 29.52 in999.7 mb - 0.00 in0.0 mm 0.13 in3.3 mm
01:40 PM 51.4°F10.8°C 46.7°F8.2°C 84% 11.5 mph NW18.5 kmh NW 23.0 mph37.0 kmh 29.52 in999.7 mb - 0.00 in0.0 mm 0.13 in3.3 mm
01:50 PM 51.6°F10.9°C 46.6°F8.1°C 83% 10.4 mph W16.7 kmh W 16.1 mph25.9 kmh 29.52 in999.7 mb - 0.00 in0.0 mm 0.13 in3.3 mm
02:00 PM 51.8°F11.0°C 46.5°F8.1°C 82% 9.2 mph WNW14.8 kmh WNW 15.0 mph24.1 kmh 29.53 in1000.0 mb - 0.00 in0.0 mm 0.13 in3.3 mm
02:10 PM 51.3°F10.7°C 46.3°F7.9°C 83% 11.5 mph WNW18.5 kmh WNW 16.1 mph25.9 kmh 29.53 in1000.0 mb - 0.00 in0.0 mm 0.13 in3.3 mm
02:20 PM 51.0°F10.6°C 46.3°F7.9°C 84% 8.1 mph WNW13.0 kmh WNW 13.8 mph22.2 kmh 29.54 in1000.3 mb - 0.00 in0.0 mm 0.13 in3.3 mm
02:30 PM 50.9°F10.5°C 46.3°F7.9°C 84% 9.2 mph WNW14.8 kmh WNW 13.8 mph22.2 kmh 29.55 in1000.7 mb - 0.00 in0.0 mm 0.13 in3.3 mm
02:50 PM 50.9°F10.5°C 45.9°F7.7°C 83% 8.1 mph NW13.0 kmh NW 11.5 mph18.5 kmh 29.56 in1001.0 mb - 0.00 in0.0 mm 0.13 in3.3 mm
03:00 PM 50.9°F10.5°C 45.9°F7.7°C 83% 8.1 mph WNW13.0 kmh WNW 13.8 mph22.2 kmh 29.57 in1001.4 mb - 0.00 in0.0 mm 0.13 in3.3 mm
03:10 PM 50.6°F10.3°C 45.6°F7.6°C 83% 11.5 mph WNW18.5 kmh WNW 17.3 mph27.8 kmh 29.57 in1001.4 mb - 0.00 in0.0 mm 0.13 in3.3 mm
03:20 PM 50.5°F10.3°C 45.8°F7.7°C 84% 9.2 mph WNW14.8 kmh WNW 13.8 mph22.2 kmh 29.58 in1001.7 mb - 0.00 in0.0 mm 0.13 in3.3 mm
03:30 PM 50.4°F10.2°C 45.7°F7.6°C 84% 13.8 mph W22.2 kmh W 17.3 mph27.8 kmh 29.59 in1002.0 mb - 0.00 in0.0 mm 0.13 in3.3 mm
03:40 PM 50.4°F10.2°C 46.1°F7.8°C 85% 9.2 mph NW14.8 kmh NW 11.5 mph18.5 kmh 29.60 in1002.4 mb - 0.00 in0.0 mm 0.13 in3.3 mm
03:50 PM 50.3°F10.2°C 46.0°F7.8°C 85% 11.5 mph WNW18.5 kmh WNW 16.1 mph25.9 kmh 29.61 in1002.7 mb - 0.00 in0.0 mm 0.13 in3.3 mm
04:00 PM 49.9°F9.9°C 46.2°F7.9°C 87% 10.4 mph NW16.7 kmh NW 12.7 mph20.4 kmh 29.63 in1003.4 mb - 0.00 in0.0 mm 0.13 in3.3 mm
04:10 PM 49.6°F9.8°C 46.2°F7.9°C 88% 5.8 mph WNW9.3 kmh WNW 12.7 mph20.4 kmh 29.64 in1003.7 mb - 0.00 in0.0 mm 0.13 in3.3 mm
04:20 PM 49.6°F9.8°C 46.5°F8.1°C 89% 6.9 mph WNW11.1 kmh WNW 11.5 mph18.5 kmh 29.64 in1003.7 mb - 0.00 in0.0 mm 0.13 in3.3 mm
04:30 PM 49.3°F9.6°C 47.1°F8.4°C 92% 6.9 mph NW11.1 kmh NW 9.2 mph14.8 kmh 29.66 in1004.4 mb - 0.01 in0.3 mm 0.14 in3.6 mm
04:40 PM 48.4°F9.1°C 47.3°F8.5°C 96% 5.8 mph NW9.3 kmh NW 9.2 mph14.8 kmh 29.66 in1004.4 mb - 0.01 in0.3 mm 0.14 in3.6 mm
04:50 PM 47.4°F8.6°C 46.3°F7.9°C 96% 3.5 mph NNW5.6 kmh NNW 5.8 mph9.3 kmh 29.67 in1004.7 mb - 0.00 in0.0 mm 0.14 in3.6 mm
05:00 PM 46.5°F8.1°C 45.7°F7.6°C 97% 6.9 mph NW11.1 kmh NW 11.5 mph18.5 kmh 29.68 in1005.1 mb - 0.01 in0.3 mm 0.15 in3.8 mm
05:10 PM 46.3°F7.9°C 45.5°F7.5°C 97% 5.8 mph NW9.3 kmh NW 9.2 mph14.8 kmh 29.69 in1005.4 mb - 0.00 in0.0 mm 0.15 in3.8 mm
05:20 PM 46.1°F7.8°C 45.0°F7.2°C 96% 5.8 mph NNW9.3 kmh NNW 8.1 mph13.0 kmh 29.70 in1005.8 mb - 0.00 in0.0 mm 0.15 in3.8 mm
05:30 PM 45.9°F7.7°C 44.8°F7.1°C 96% 5.8 mph NW9.3 kmh NW 10.4 mph16.7 kmh 29.70 in1005.8 mb - 0.00 in0.0 mm 0.15 in3.8 mm
05:40 PM 45.8°F7.7°C 44.4°F6.9°C 95% 4.6 mph NW7.4 kmh NW 8.1 mph13.0 kmh 29.71 in1006.1 mb - 0.00 in0.0 mm 0.15 in3.8 mm
05:50 PM 45.7°F7.6°C 44.4°F6.9°C 95% 2.3 mph NW3.7 kmh NW 4.6 mph7.4 kmh 29.72 in1006.4 mb - 0.00 in0.0 mm 0.15 in3.8 mm
06:00 PM 45.5°F7.5°C 44.2°F6.8°C 95% 2.3 mph NNW3.7 kmh NNW 5.8 mph9.3 kmh 29.73 in1006.8 mb - 0.00 in0.0 mm 0.15 in3.8 mm
06:10 PM 45.5°F7.5°C 44.4°F6.9°C 96% Calm Calm 2.3 mph3.7 kmh 29.74 in1007.1 mb - 0.00 in0.0 mm 0.15 in3.8 mm
06:20 PM 44.9°F7.2°C 43.6°F6.4°C 95% 1.2 mph NW1.9 kmh NW 3.5 mph5.6 kmh 29.76 in1007.8 mb - 0.00 in0.0 mm 0.15 in3.8 mm
06:30 PM 44.1°F6.7°C 42.5°F5.8°C 94% 2.3 mph NW3.7 kmh NW 3.5 mph5.6 kmh 29.76 in1007.8 mb - 0.00 in0.0 mm 0.15 in3.8 mm
06:50 PM 43.7°F6.5°C 42.1°F5.6°C 94% 4.6 mph NW7.4 kmh NW 6.9 mph11.1 kmh 29.77 in1008.1 mb - 0.00 in0.0 mm 0.15 in3.8 mm
07:00 PM 43.8°F6.6°C 42.5°F5.8°C 95% 1.2 mph ESE1.9 kmh ESE -- 29.78 in1008.5 mb - 0.00 in0.0 mm 0.15 in3.8 mm
07:10 PM 43.5°F6.4°C 41.9°F5.5°C 94% Calm Calm -- 29.79 in1008.8 mb - 0.00 in0.0 mm 0.15 in3.8 mm
07:20 PM 43.3°F6.3°C 41.7°F5.4°C 94% 1.2 mph NNW1.9 kmh NNW 2.3 mph3.7 kmh 29.80 in1009.1 mb - 0.00 in0.0 mm 0.15 in3.8 mm
07:30 PM 43.1°F6.2°C 41.2°F5.1°C 93% 2.3 mph NW3.7 kmh NW 5.8 mph9.3 kmh 29.79 in1008.8 mb - 0.00 in0.0 mm 0.15 in3.8 mm
07:40 PM 42.9°F6.1°C 40.7°F4.8°C 92% 3.5 mph N5.6 kmh N 8.1 mph13.0 kmh 29.79 in1008.8 mb - 0.00 in0.0 mm 0.15 in3.8 mm
07:50 PM 42.7°F5.9°C 40.8°F4.9°C 93% Calm Calm -- 29.80 in1009.1 mb - 0.00 in0.0 mm 0.15 in3.8 mm
08:00 PM 42.5°F5.8°C 40.9°F4.9°C 94% Calm Calm -- 29.80 in1009.1 mb - 0.00 in0.0 mm 0.15 in3.8 mm
08:10 PM 42.5°F5.8°C 40.9°F4.9°C 94% Calm Calm -- 29.81 in1009.5 mb - 0.00 in0.0 mm 0.15 in3.8 mm
08:20 PM 42.5°F5.8°C 40.9°F4.9°C 94% Calm Calm -- 29.81 in1009.5 mb - 0.00 in0.0 mm 0.15 in3.8 mm
08:30 PM 42.5°F5.8°C 40.6°F4.8°C 93% Calm Calm -- 29.82 in1009.8 mb - 0.00 in0.0 mm 0.15 in3.8 mm
08:40 PM 42.7°F5.9°C 41.1°F5.1°C 94% Calm Calm -- 29.82 in1009.8 mb - 0.00 in0.0 mm 0.15 in3.8 mm
08:50 PM 42.8°F6.0°C 41.2°F5.1°C 94% Calm Calm -- 29.82 in1009.8 mb - 0.00 in0.0 mm 0.15 in3.8 mm
09:00 PM 42.8°F6.0°C 41.2°F5.1°C 94% Calm Calm -- 29.83 in1010.2 mb - 0.00 in0.0 mm 0.15 in3.8 mm
09:10 PM 42.8°F6.0°C 41.2°F5.1°C 94% Calm Calm -- 29.83 in1010.2 mb - 0.00 in0.0 mm 0.15 in3.8 mm
09:20 PM 42.7°F5.9°C 41.1°F5.1°C 94% Calm Calm -- 29.84 in1010.5 mb - 0.00 in0.0 mm 0.15 in3.8 mm
09:30 PM 42.6°F5.9°C 41.0°F5.0°C 94% Calm Calm -- 29.84 in1010.5 mb - 0.00 in0.0 mm 0.15 in3.8 mm
09:40 PM 42.5°F5.8°C 40.9°F4.9°C 94% Calm Calm -- 29.83 in1010.2 mb - 0.00 in0.0 mm 0.15 in3.8 mm
09:50 PM 42.4°F5.8°C 41.1°F5.1°C 95% Calm Calm -- 29.83 in1010.2 mb - 0.00 in0.0 mm 0.15 in3.8 mm
10:00 PM 42.4°F5.8°C 41.1°F5.1°C 95% Calm Calm -- 29.82 in1009.8 mb - 0.00 in0.0 mm 0.15 in3.8 mm
10:10 PM 42.4°F5.8°C 41.1°F5.1°C 95% Calm Calm -- 29.84 in1010.5 mb - 0.00 in0.0 mm 0.15 in3.8 mm
10:20 PM 42.3°F5.7°C 41.2°F5.1°C 96% Calm Calm -- 29.84 in1010.5 mb - 0.00 in0.0 mm 0.15 in3.8 mm
10:30 PM 42.3°F5.7°C 41.2°F5.1°C 96% Calm Calm -- 29.84 in1010.5 mb - 0.00 in0.0 mm 0.15 in3.8 mm
10:40 PM 42.2°F5.7°C 41.2°F5.1°C 96% Calm Calm -- 29.84 in1010.5 mb - 0.00 in0.0 mm 0.15 in3.8 mm
10:50 PM 42.3°F5.7°C 41.2°F5.1°C 96% Calm Calm -- 29.85 in1010.8 mb - 0.00 in0.0 mm 0.15 in3.8 mm
11:00 PM 42.4°F5.8°C 41.3°F5.2°C 96% Calm Calm -- 29.86 in1011.2 mb - 0.00 in0.0 mm 0.15 in3.8 mm
11:10 PM 42.4°F5.8°C 41.3°F5.2°C 96% Calm Calm -- 29.86 in1011.2 mb - 0.00 in0.0 mm 0.15 in3.8 mm
11:20 PM 42.4°F5.8°C 41.6°F5.3°C 97% Calm Calm -- 29.86 in1011.2 mb - 0.00 in0.0 mm 0.15 in3.8 mm
11:30 PM 42.4°F5.8°C 41.6°F5.3°C 97% 2.3 mph SE3.7 kmh SE 4.6 mph7.4 kmh 29.85 in1010.8 mb - 0.00 in0.0 mm 0.15 in3.8 mm
11:40 PM 42.3°F5.7°C 41.5°F5.3°C 97% 2.3 mph SSE3.7 kmh SSE 5.8 mph9.3 kmh 29.84 in1010.5 mb - 0.00 in0.0 mm 0.15 in3.8 mm
11:50 PM 42.2°F5.7°C 41.4°F5.2°C 97% 2.3 mph SSE3.7 kmh SSE 2.3 mph3.7 kmh 29.84 in1010.5 mb - 0.00 in0.0 mm 0.15 in3.8 mm